Virginiborg — PBDL — position and weather

sailwx.info

Track history (hours):
 
Tides and Currents Weather Stations Pressure Air Temp Water Temp Dewpoint Dewpoint Depression Visibility Wind Speed Wind Dir Waves Ship Positions

Virginiborg

Last reported at 2014-Oct-19 04:08 UTC. Time now 2014-Oct-21 12:04 UTC.
Position N 45°39' W 084°01'.

Length 132 m; draft 4.8 m.

Type: Cargo ship. MMSI: 244632000.

Date/timePositionNaut miles runAvg speedWind from/ knotsBaromVisibWave heightAir tempDewpointWater temp
2014-Oct-19 04:08N 45°39' W 084°01'813.8
2014-Oct-19 03:33N 45°42' W 084°11'1313.0
2014-Oct-19 02:33N 45°42' W 084°29'1413.8
2014-Oct-19 01:33N 45°49' W 084°47'1413.8
2014-Oct-19 00:33N 45°51' W 085°06'1414.0
2014-Oct-18 23:33N 45°53' W 085°26'1413.7
2014-Oct-18 22:34N 45°53' W 085°46'1313.3
2014-Oct-18 21:33N 45°46' W 086°02'1312.9
2014-Oct-18 20:34N 45°39' W 086°17'6112.2
2014-Oct-18 15:33N 44°50' W 087°11'  
2014-Oct-14 12:06N 45°31' W 086°14'813.9
2014-Oct-14 11:33N 45°38' W 086°09'1313.4
2014-Oct-14 10:33N 45°46' W 085°54'1413.8
2014-Oct-14 09:33N 45°52' W 085°37'1313.5
2014-Oct-14 08:34N 45°52' W 085°17'1414.0
2014-Oct-14 07:33N 45°50' W 084°57'1414.1
2014-Oct-14 06:34N 45°47' W 084°38'1313.3
2014-Oct-14 05:33N 45°42' W 084°20'262 7.9
2014-Oct-12 20:25N 42°26' W 080°18'1112.6
2014-Oct-12 19:33N 42°30' W 080°04'  
2014-Oct-10 12:28N 45°06' W 074°29'1011.3
2014-Oct-10 11:33N 45°12' W 074°18'1010.4
2014-Oct-10 10:33N 45°13' W 074°03'7 7.3
2014-Oct-10 09:34N 45°18' W 073°56'1 1.0
2014-Oct-10 08:33N 45°19' W 073°55'8 8.5
2014-Oct-10 07:33N 45°24' W 073°45'7 7.4
2014-Oct-10 06:34N 45°24' W 073°35'3 3.1
2014-Oct-10 05:34N 45°25' W 073°30'4 4.5
2014-Oct-10 04:34N 45°30' W 073°31'3 3.2
2014-Oct-10 03:32N 45°33' W 073°32'0 0.1
2014-Oct-10 02:32N 45°33' W 073°32'0 0.0
2014-Oct-10 01:32N 45°33' W 073°32'0 0.0
2014-Oct-09 22:09N 45°33' W 073°32'0 0.0
2014-Oct-09 21:33N 45°33' W 073°32'0 0.0
2014-Oct-09 20:32N 45°33' W 073°32'0 0.0
2014-Oct-09 19:32N 45°33' W 073°32'0 0.0
2014-Oct-09 10:32N 45°33' W 073°32'0 0.0
2014-Oct-09 09:31N 45°33' W 073°32'1 0.6
2014-Oct-09 08:33N 45°33' W 073°31'8 8.3
2014-Oct-09 07:33N 45°41' W 073°27'1010.0
2014-Oct-09 06:33N 45°49' W 073°19'1010.1
2014-Oct-09 05:33N 45°58' W 073°12'  
Track history (hours):
 
Tides and Currents Weather Stations Pressure Air Temp Water Temp Dewpoint Dewpoint Depression Visibility Wind Speed Wind Dir Waves Ship Positions

Virginiborg

Last reported at 2014-Oct-19 04:08 UTC. Time now 2014-Oct-21 12:04 UTC.
Position N 45°39' W 084°01'.

Length 132 m; draft 4.8 m.

Type: Cargo ship. MMSI: 244632000.

Date/timePositionNaut miles runAvg speedWind from/ knotsBaromVisibWave heightAir tempDewpointWater temp
2014-Oct-19 04:08N 45°39' W 084°01'813.8
2014-Oct-19 03:33N 45°42' W 084°11'1313.0
2014-Oct-19 02:33N 45°42' W 084°29'1413.8
2014-Oct-19 01:33N 45°49' W 084°47'1413.8
2014-Oct-19 00:33N 45°51' W 085°06'1414.0
2014-Oct-18 23:33N 45°53' W 085°26'1413.7
2014-Oct-18 22:34N 45°53' W 085°46'1313.3
2014-Oct-18 21:33N 45°46' W 086°02'1312.9
2014-Oct-18 20:34N 45°39' W 086°17'6112.2
2014-Oct-18 15:33N 44°50' W 087°11'  
2014-Oct-14 12:06N 45°31' W 086°14'813.9
2014-Oct-14 11:33N 45°38' W 086°09'1313.4
2014-Oct-14 10:33N 45°46' W 085°54'1413.8
2014-Oct-14 09:33N 45°52' W 085°37'1313.5
2014-Oct-14 08:34N 45°52' W 085°17'1414.0
2014-Oct-14 07:33N 45°50' W 084°57'1414.1
2014-Oct-14 06:34N 45°47' W 084°38'1313.3
2014-Oct-14 05:33N 45°42' W 084°20'262 7.9
2014-Oct-12 20:25N 42°26' W 080°18'1112.6
2014-Oct-12 19:33N 42°30' W 080°04'  
2014-Oct-10 12:28N 45°06' W 074°29'1011.3
2014-Oct-10 11:33N 45°12' W 074°18'1010.4
2014-Oct-10 10:33N 45°13' W 074°03'7 7.3
2014-Oct-10 09:34N 45°18' W 073°56'1 1.0
2014-Oct-10 08:33N 45°19' W 073°55'8 8.5
2014-Oct-10 07:33N 45°24' W 073°45'7 7.4
2014-Oct-10 06:34N 45°24' W 073°35'3 3.1
2014-Oct-10 05:34N 45°25' W 073°30'4 4.5
2014-Oct-10 04:34N 45°30' W 073°31'3 3.2
2014-Oct-10 03:32N 45°33' W 073°32'0 0.1
2014-Oct-10 02:32N 45°33' W 073°32'0 0.0
2014-Oct-10 01:32N 45°33' W 073°32'0 0.0
2014-Oct-09 22:09N 45°33' W 073°32'0 0.0
2014-Oct-09 21:33N 45°33' W 073°32'0 0.0
2014-Oct-09 20:32N 45°33' W 073°32'0 0.0
2014-Oct-09 19:32N 45°33' W 073°32'0 0.0
2014-Oct-09 10:32N 45°33' W 073°32'0 0.0
2014-Oct-09 09:31N 45°33' W 073°32'1 0.6
2014-Oct-09 08:33N 45°33' W 073°31'8 8.3
2014-Oct-09 07:33N 45°41' W 073°27'1010.0
2014-Oct-09 06:33N 45°49' W 073°19'1010.1
2014-Oct-09 05:33N 45°58' W 073°12'  

Dump ship's entire track history